sensor_id;sensor_type;location;lat;lon;timestamp;pressure;altitude;pressure_sealevel;temperature;humidity
42519;BME280;28147;47.520;18.920;2024-03-17T00:01:04;98688.88;;;12.78;73.57
42519;BME280;28147;47.520;18.920;2024-03-17T00:03:30;98689.44;;;12.80;73.19
42519;BME280;28147;47.520;18.920;2024-03-17T00:05:59;98684.25;;;12.74;72.94
42519;BME280;28147;47.520;18.920;2024-03-17T00:08:25;98673.25;;;12.70;72.59
42519;BME280;28147;47.520;18.920;2024-03-17T00:10:51;98685.78;;;12.70;73.00
42519;BME280;28147;47.520;18.920;2024-03-17T00:13:17;98677.44;;;12.66;72.78
42519;BME280;28147;47.520;18.920;2024-03-17T00:15:42;98679.56;;;12.35;74.31
42519;BME280;28147;47.520;18.920;2024-03-17T00:18:08;98680.34;;;12.64;73.40
42519;BME280;28147;47.520;18.920;2024-03-17T00:20:34;98681.25;;;12.70;72.42
42519;BME280;28147;47.520;18.920;2024-03-17T00:22:59;98668.66;;;12.54;73.19
42519;BME280;28147;47.520;18.920;2024-03-17T00:25:24;98682.31;;;12.69;73.47
42519;BME280;28147;47.520;18.920;2024-03-17T00:27:49;98688.31;;;12.48;74.65
42519;BME280;28147;47.520;18.920;2024-03-17T00:30:16;98691.16;;;12.29;75.29
42519;BME280;28147;47.520;18.920;2024-03-17T00:32:42;98697.78;;;12.27;75.56
42519;BME280;28147;47.520;18.920;2024-03-17T00:35:09;98692.75;;;12.42;75.03
42519;BME280;28147;47.520;18.920;2024-03-17T00:37:35;98687.06;;;12.10;75.39
42519;BME280;28147;47.520;18.920;2024-03-17T00:40:01;98680.50;;;12.29;74.83
42519;BME280;28147;47.520;18.920;2024-03-17T00:42:27;98687.66;;;12.40;74.02
42519;BME280;28147;47.520;18.920;2024-03-17T00:44:52;98694.41;;;12.60;73.25
42519;BME280;28147;47.520;18.920;2024-03-17T00:47:17;98685.47;;;12.66;72.50
42519;BME280;28147;47.520;18.920;2024-03-17T00:49:43;98681.47;;;12.69;72.32
42519;BME280;28147;47.520;18.920;2024-03-17T00:52:08;98676.03;;;12.47;72.52
42519;BME280;28147;47.520;18.920;2024-03-17T00:54:33;98687.34;;;12.54;72.65
42519;BME280;28147;47.520;18.920;2024-03-17T00:56:59;98691.41;;;12.56;72.34
42519;BME280;28147;47.520;18.920;2024-03-17T00:59:24;98677.34;;;12.32;72.59
42519;BME280;28147;47.520;18.920;2024-03-17T01:01:49;98682.78;;;12.37;72.91
42519;BME280;28147;47.520;18.920;2024-03-17T01:04:15;98688.16;;;12.26;73.44
42519;BME280;28147;47.520;18.920;2024-03-17T01:06:40;98684.97;;;12.40;72.59
42519;BME280;28147;47.520;18.920;2024-03-17T01:09:06;98681.84;;;12.44;72.62
42519;BME280;28147;47.520;18.920;2024-03-17T01:11:32;98678.03;;;12.39;72.37
42519;BME280;28147;47.520;18.920;2024-03-17T01:13:57;98685.22;;;12.39;72.28
42519;BME280;28147;47.520;18.920;2024-03-17T01:16:22;98679.16;;;12.44;72.28
42519;BME280;28147;47.520;18.920;2024-03-17T01:18:48;98676.47;;;12.15;73.46
42519;BME280;28147;47.520;18.920;2024-03-17T01:21:13;98678.00;;;12.11;73.70
42519;BME280;28147;47.520;18.920;2024-03-17T01:23:39;98679.97;;;12.04;74.06
42519;BME280;28147;47.520;18.920;2024-03-17T01:26:04;98672.25;;;11.90;74.72
42519;BME280;28147;47.520;18.920;2024-03-17T01:28:30;98664.78;;;12.16;73.52
42519;BME280;28147;47.520;18.920;2024-03-17T01:30:56;98677.91;;;12.06;74.07
42519;BME280;28147;47.520;18.920;2024-03-17T01:33:21;98663.91;;;11.87;74.66
42519;BME280;28147;47.520;18.920;2024-03-17T01:35:46;98667.25;;;11.82;74.69
42519;BME280;28147;47.520;18.920;2024-03-17T01:38:11;98672.66;;;12.11;74.05
42519;BME280;28147;47.520;18.920;2024-03-17T01:40:37;98663.41;;;12.02;73.92
42519;BME280;28147;47.520;18.920;2024-03-17T01:43:03;98669.69;;;11.96;74.25
42519;BME280;28147;47.520;18.920;2024-03-17T01:45:32;98672.59;;;11.71;75.56
42519;BME280;28147;47.520;18.920;2024-03-17T01:48:02;98665.50;;;11.76;75.38
42519;BME280;28147;47.520;18.920;2024-03-17T01:50:37;98665.06;;;11.79;75.17
42519;BME280;28147;47.520;18.920;2024-03-17T01:53:05;98679.25;;;12.08;74.28
42519;BME280;28147;47.520;18.920;2024-03-17T01:55:33;98677.47;;;11.97;74.68
42519;BME280;28147;47.520;18.920;2024-03-17T01:58:00;98677.25;;;11.87;74.95
42519;BME280;28147;47.520;18.920;2024-03-17T02:00:25;98676.19;;;11.64;75.86
42519;BME280;28147;47.520;18.920;2024-03-17T02:02:52;98672.13;;;11.97;74.75
42519;BME280;28147;47.520;18.920;2024-03-17T02:05:17;98680.72;;;11.87;74.85
42519;BME280;28147;47.520;18.920;2024-03-17T02:07:42;98688.97;;;11.86;74.79
42519;BME280;28147;47.520;18.920;2024-03-17T02:10:08;98673.41;;;11.71;75.66
42519;BME280;28147;47.520;18.920;2024-03-17T02:12:34;98678.53;;;11.49;77.11
42519;BME280;28147;47.520;18.920;2024-03-17T02:15:00;98677.81;;;11.54;77.05
42519;BME280;28147;47.520;18.920;2024-03-17T02:17:25;98682.91;;;11.43;77.47
42519;BME280;28147;47.520;18.920;2024-03-17T02:19:52;98691.72;;;11.32;77.94
42519;BME280;28147;47.520;18.920;2024-03-17T02:22:17;98683.16;;;11.42;77.33
42519;BME280;28147;47.520;18.920;2024-03-17T02:24:44;98696.50;;;11.42;77.86
42519;BME280;28147;47.520;18.920;2024-03-17T02:27:09;98693.72;;;11.25;78.68
42519;BME280;28147;47.520;18.920;2024-03-17T02:29:35;98686.63;;;11.42;77.96
42519;BME280;28147;47.520;18.920;2024-03-17T02:32:04;98701.34;;;11.45;77.86
42519;BME280;28147;47.520;18.920;2024-03-17T02:34:36;98704.47;;;11.30;78.49
42519;BME280;28147;47.520;18.920;2024-03-17T02:37:02;98693.94;;;11.35;77.95
42519;BME280;28147;47.520;18.920;2024-03-17T02:39:28;98696.13;;;11.50;77.21
42519;BME280;28147;47.520;18.920;2024-03-17T02:42:10;98698.34;;;11.41;77.69
42519;BME280;28147;47.520;18.920;2024-03-17T02:44:37;98687.91;;;11.40;76.91
42519;BME280;28147;47.520;18.920;2024-03-17T02:47:03;98689.88;;;11.44;77.21
42519;BME280;28147;47.520;18.920;2024-03-17T02:49:30;98690.91;;;11.55;76.27
42519;BME280;28147;47.520;18.920;2024-03-17T02:52:06;98678.88;;;11.53;76.37
42519;BME280;28147;47.520;18.920;2024-03-17T02:54:32;98693.09;;;11.70;74.35
42519;BME280;28147;47.520;18.920;2024-03-17T02:56:58;98688.47;;;11.77;73.86
42519;BME280;28147;47.520;18.920;2024-03-17T02:59:24;98669.94;;;11.47;74.57
42519;BME280;28147;47.520;18.920;2024-03-17T03:01:49;98656.41;;;11.49;73.98
42519;BME280;28147;47.520;18.920;2024-03-17T03:04:14;98689.41;;;11.48;74.85
42519;BME280;28147;47.520;18.920;2024-03-17T03:06:40;98698.59;;;11.52;74.43
42519;BME280;28147;47.520;18.920;2024-03-17T03:09:06;98703.53;;;11.36;74.07
42519;BME280;28147;47.520;18.920;2024-03-17T03:11:38;98704.47;;;11.30;74.69
42519;BME280;28147;47.520;18.920;2024-03-17T03:14:03;98703.44;;;11.31;74.91
42519;BME280;28147;47.520;18.920;2024-03-17T03:16:28;98701.47;;;11.38;74.61
42519;BME280;28147;47.520;18.920;2024-03-17T03:18:54;98717.09;;;11.35;74.91
42519;BME280;28147;47.520;18.920;2024-03-17T03:21:19;98707.97;;;11.42;74.58
42519;BME280;28147;47.520;18.920;2024-03-17T03:23:44;98713.28;;;11.31;74.76
42519;BME280;28147;47.520;18.920;2024-03-17T03:26:10;98717.44;;;11.27;74.62
42519;BME280;28147;47.520;18.920;2024-03-17T03:28:35;98730.19;;;11.36;74.15
42519;BME280;28147;47.520;18.920;2024-03-17T03:31:01;98733.09;;;11.23;74.41
42519;BME280;28147;47.520;18.920;2024-03-17T03:33:27;98736.22;;;11.32;74.35
42519;BME280;28147;47.520;18.920;2024-03-17T03:35:53;98729.72;;;11.16;74.29
42519;BME280;28147;47.520;18.920;2024-03-17T03:38:18;98750.22;;;11.15;74.20
42519;BME280;28147;47.520;18.920;2024-03-17T03:40:45;98760.44;;;11.30;73.64
42519;BME280;28147;47.520;18.920;2024-03-17T03:43:10;98762.94;;;11.13;74.13
42519;BME280;28147;47.520;18.920;2024-03-17T03:45:36;98755.69;;;10.90;75.28
42519;BME280;28147;47.520;18.920;2024-03-17T03:48:03;98767.44;;;10.71;75.58
42519;BME280;28147;47.520;18.920;2024-03-17T03:50:29;98771.66;;;10.90;75.18
42519;BME280;28147;47.520;18.920;2024-03-17T03:52:55;98773.31;;;10.91;74.62
42519;BME280;28147;47.520;18.920;2024-03-17T03:55:20;98784.41;;;10.88;73.63
42519;BME280;28147;47.520;18.920;2024-03-17T03:57:46;98774.63;;;11.01;72.72
42519;BME280;28147;47.520;18.920;2024-03-17T04:00:16;98776.81;;;11.04;71.78
42519;BME280;28147;47.520;18.920;2024-03-17T04:02:44;98770.00;;;11.08;71.67
42519;BME280;28147;47.520;18.920;2024-03-17T04:05:10;98776.03;;;11.03;71.79
42519;BME280;28147;47.520;18.920;2024-03-17T04:07:36;98776.63;;;10.87;71.48
42519;BME280;28147;47.520;18.920;2024-03-17T04:10:03;98780.53;;;11.03;70.42
42519;BME280;28147;47.520;18.920;2024-03-17T04:12:28;98784.09;;;10.96;70.81
42519;BME280;28147;47.520;18.920;2024-03-17T04:14:59;98776.94;;;11.09;69.42
42519;BME280;28147;47.520;18.920;2024-03-17T04:17:25;98795.03;;;11.07;69.32
42519;BME280;28147;47.520;18.920;2024-03-17T04:19:51;98789.34;;;10.73;69.63
42519;BME280;28147;47.520;18.920;2024-03-17T04:22:18;98799.28;;;10.96;69.05
42519;BME280;28147;47.520;18.920;2024-03-17T04:24:44;98795.34;;;10.68;70.33
42519;BME280;28147;47.520;18.920;2024-03-17T04:27:10;98804.56;;;10.66;71.51
42519;BME280;28147;47.520;18.920;2024-03-17T04:29:35;98784.75;;;10.62;71.72
42519;BME280;28147;47.520;18.920;2024-03-17T04:32:00;98789.59;;;10.53;72.41
42519;BME280;28147;47.520;18.920;2024-03-17T04:34:27;98790.94;;;10.74;72.14
42519;BME280;28147;47.520;18.920;2024-03-17T04:36:52;98784.16;;;10.60;72.37
42519;BME280;28147;47.520;18.920;2024-03-17T04:39:19;98780.25;;;10.62;72.16
42519;BME280;28147;47.520;18.920;2024-03-17T04:41:45;98783.28;;;10.66;72.12
42519;BME280;28147;47.520;18.920;2024-03-17T04:44:10;98786.88;;;10.71;71.83
42519;BME280;28147;47.520;18.920;2024-03-17T04:46:35;98788.91;;;10.58;71.79
42519;BME280;28147;47.520;18.920;2024-03-17T04:49:01;98787.88;;;10.40;72.34
42519;BME280;28147;47.520;18.920;2024-03-17T04:51:28;98785.22;;;10.40;72.26
42519;BME280;28147;47.520;18.920;2024-03-17T04:53:54;98787.69;;;10.42;72.59
42519;BME280;28147;47.520;18.920;2024-03-17T04:56:19;98784.78;;;10.43;72.30
42519;BME280;28147;47.520;18.920;2024-03-17T04:58:44;98787.94;;;10.34;71.63
42519;BME280;28147;47.520;18.920;2024-03-17T05:01:10;98769.41;;;10.27;71.14
42519;BME280;28147;47.520;18.920;2024-03-17T05:03:35;98768.28;;;10.16;70.89
42519;BME280;28147;47.520;18.920;2024-03-17T05:06:02;98772.91;;;10.03;71.10
42519;BME280;28147;47.520;18.920;2024-03-17T05:08:29;98764.63;;;10.11;70.13
42519;BME280;28147;47.520;18.920;2024-03-17T05:10:58;98759.75;;;9.89;70.17
42519;BME280;28147;47.520;18.920;2024-03-17T05:13:27;98757.09;;;9.89;69.00
42519;BME280;28147;47.520;18.920;2024-03-17T05:15:53;98767.91;;;10.13;67.71
42519;BME280;28147;47.520;18.920;2024-03-17T05:18:18;98774.09;;;10.07;66.94
42519;BME280;28147;47.520;18.920;2024-03-17T05:20:45;98781.66;;;9.66;66.33
42519;BME280;28147;47.520;18.920;2024-03-17T05:23:12;98785.59;;;9.57;65.37
42519;BME280;28147;47.520;18.920;2024-03-17T05:25:37;98790.53;;;9.54;65.78
42519;BME280;28147;47.520;18.920;2024-03-17T05:28:03;98797.47;;;9.80;64.22
42519;BME280;28147;47.520;18.920;2024-03-17T05:30:29;98808.44;;;9.65;64.32
42519;BME280;28147;47.520;18.920;2024-03-17T05:32:55;98813.25;;;9.99;63.29
42519;BME280;28147;47.520;18.920;2024-03-17T05:35:21;98812.56;;;9.61;62.74
42519;BME280;28147;47.520;18.920;2024-03-17T05:37:46;98804.38;;;9.62;62.73
42519;BME280;28147;47.520;18.920;2024-03-17T05:40:13;98808.06;;;9.61;62.60
42519;BME280;28147;47.520;18.920;2024-03-17T05:42:41;98794.63;;;9.56;62.08
42519;BME280;28147;47.520;18.920;2024-03-17T05:45:08;98806.88;;;9.82;61.30
42519;BME280;28147;47.520;18.920;2024-03-17T05:47:36;98809.00;;;9.48;62.09
42519;BME280;28147;47.520;18.920;2024-03-17T05:50:01;98817.94;;;9.79;61.73
42519;BME280;28147;47.520;18.920;2024-03-17T05:52:27;98821.25;;;9.74;61.56
42519;BME280;28147;47.520;18.920;2024-03-17T05:54:52;98832.69;;;10.00;60.81
42519;BME280;28147;47.520;18.920;2024-03-17T05:57:17;98818.38;;;10.19;60.09
42519;BME280;28147;47.520;18.920;2024-03-17T05:59:42;98797.47;;;10.23;60.01
42519;BME280;28147;47.520;18.920;2024-03-17T06:02:09;98813.44;;;10.23;59.63
42519;BME280;28147;47.520;18.920;2024-03-17T06:04:35;98804.66;;;9.79;60.08
42519;BME280;28147;47.520;18.920;2024-03-17T06:07:00;98810.13;;;10.28;58.97
42519;BME280;28147;47.520;18.920;2024-03-17T06:09:25;98818.03;;;10.53;58.39
42519;BME280;28147;47.520;18.920;2024-03-17T06:11:51;98806.75;;;10.57;58.40
42519;BME280;28147;47.520;18.920;2024-03-17T06:14:16;98808.06;;;10.48;58.26
42519;BME280;28147;47.520;18.920;2024-03-17T06:16:42;98819.66;;;10.72;57.27
42519;BME280;28147;47.520;18.920;2024-03-17T06:19:09;98821.19;;;11.10;56.17
42519;BME280;28147;47.520;18.920;2024-03-17T06:21:34;98820.59;;;10.96;57.00
42519;BME280;28147;47.520;18.920;2024-03-17T06:23:59;98827.13;;;11.12;56.99
42519;BME280;28147;47.520;18.920;2024-03-17T06:26:24;98818.69;;;10.85;57.26
42519;BME280;28147;47.520;18.920;2024-03-17T06:28:51;98816.19;;;11.43;56.00
42519;BME280;28147;47.520;18.920;2024-03-17T06:31:17;98819.91;;;11.42;55.24
42519;BME280;28147;47.520;18.920;2024-03-17T06:33:42;98820.31;;;11.69;54.40
42519;BME280;28147;47.520;18.920;2024-03-17T06:36:07;98809.88;;;11.56;54.42
42519;BME280;28147;47.520;18.920;2024-03-17T06:38:33;98821.00;;;11.65;54.19
42519;BME280;28147;47.520;18.920;2024-03-17T06:40:59;98828.03;;;12.13;52.52
42519;BME280;28147;47.520;18.920;2024-03-17T06:43:24;98827.91;;;11.84;51.91
42519;BME280;28147;47.520;18.920;2024-03-17T06:45:59;98836.66;;;11.73;53.33
42519;BME280;28147;47.520;18.920;2024-03-17T06:48:26;98842.53;;;12.05;50.68
42519;BME280;28147;47.520;18.920;2024-03-17T06:50:52;98837.41;;;12.04;51.54
42519;BME280;28147;47.520;18.920;2024-03-17T06:53:19;98828.09;;;11.83;51.32
42519;BME280;28147;47.520;18.920;2024-03-17T06:55:52;98827.91;;;11.42;52.43
42519;BME280;28147;47.520;18.920;2024-03-17T06:58:18;98820.63;;;11.50;52.71
42519;BME280;28147;47.520;18.920;2024-03-17T07:00:58;98834.84;;;11.85;52.55
42519;BME280;28147;47.520;18.920;2024-03-17T07:03:25;98836.59;;;11.91;52.13
42519;BME280;28147;47.520;18.920;2024-03-17T07:05:55;98835.75;;;11.67;52.92
42519;BME280;28147;47.520;18.920;2024-03-17T07:08:24;98841.63;;;11.58;52.85
42519;BME280;28147;47.520;18.920;2024-03-17T07:10:57;98841.28;;;11.66;51.95
42519;BME280;28147;47.520;18.920;2024-03-17T07:13:23;98851.31;;;11.82;53.06
42519;BME280;28147;47.520;18.920;2024-03-17T07:15:48;98826.00;;;11.73;51.71
42519;BME280;28147;47.520;18.920;2024-03-17T07:18:14;98850.63;;;12.22;51.69
42519;BME280;28147;47.520;18.920;2024-03-17T07:20:39;98837.88;;;11.89;52.57
42519;BME280;28147;47.520;18.920;2024-03-17T07:23:05;98840.38;;;11.60;52.85
42519;BME280;28147;47.520;18.920;2024-03-17T07:25:30;98853.97;;;11.71;52.55
42519;BME280;28147;47.520;18.920;2024-03-17T07:27:55;98840.75;;;11.34;53.25
42519;BME280;28147;47.520;18.920;2024-03-17T07:30:21;98850.03;;;11.85;52.44
42519;BME280;28147;47.520;18.920;2024-03-17T07:32:46;98848.06;;;11.92;52.18
42519;BME280;28147;47.520;18.920;2024-03-17T07:35:12;98850.63;;;12.46;51.37
42519;BME280;28147;47.520;18.920;2024-03-17T07:37:37;98835.09;;;12.07;51.24
42519;BME280;28147;47.520;18.920;2024-03-17T07:40:05;98844.03;;;12.13;50.51
42519;BME280;28147;47.520;18.920;2024-03-17T07:42:32;98846.44;;;12.38;50.67
42519;BME280;28147;47.520;18.920;2024-03-17T07:44:57;98842.34;;;12.71;49.57
42519;BME280;28147;47.520;18.920;2024-03-17T07:47:22;98849.16;;;12.78;49.68
42519;BME280;28147;47.520;18.920;2024-03-17T07:49:48;98847.34;;;12.67;50.18
42519;BME280;28147;47.520;18.920;2024-03-17T07:52:13;98839.19;;;12.74;49.89
42519;BME280;28147;47.520;18.920;2024-03-17T07:54:38;98839.38;;;13.24;48.72
42519;BME280;28147;47.520;18.920;2024-03-17T07:57:04;98849.81;;;12.97;48.76
42519;BME280;28147;47.520;18.920;2024-03-17T07:59:29;98850.22;;;12.77;48.45
42519;BME280;28147;47.520;18.920;2024-03-17T08:01:56;98853.34;;;13.26;48.36
42519;BME280;28147;47.520;18.920;2024-03-17T08:04:21;98862.06;;;13.10;48.10
42519;BME280;28147;47.520;18.920;2024-03-17T08:06:47;98849.34;;;13.91;46.73
42519;BME280;28147;47.520;18.920;2024-03-17T08:09:12;98856.50;;;14.41;45.96
42519;BME280;28147;47.520;18.920;2024-03-17T08:11:38;98862.63;;;14.03;45.70
42519;BME280;28147;47.520;18.920;2024-03-17T08:14:11;98860.72;;;13.98;45.37
42519;BME280;28147;47.520;18.920;2024-03-17T08:16:37;98865.09;;;14.43;43.97
42519;BME280;28147;47.520;18.920;2024-03-17T08:19:02;98852.63;;;13.48;44.14
42519;BME280;28147;47.520;18.920;2024-03-17T08:21:28;98852.16;;;13.51;45.25
42519;BME280;28147;47.520;18.920;2024-03-17T08:23:55;98862.44;;;14.26;43.48
42519;BME280;28147;47.520;18.920;2024-03-17T08:26:20;98863.94;;;14.17;42.09
42519;BME280;28147;47.520;18.920;2024-03-17T08:28:45;98861.47;;;14.16;41.34
42519;BME280;28147;47.520;18.920;2024-03-17T08:31:11;98851.81;;;14.31;41.61
42519;BME280;28147;47.520;18.920;2024-03-17T08:33:37;98851.59;;;14.16;42.28
42519;BME280;28147;47.520;18.920;2024-03-17T08:36:04;98860.13;;;14.13;42.27
42519;BME280;28147;47.520;18.920;2024-03-17T08:38:31;98871.06;;;14.11;42.47
42519;BME280;28147;47.520;18.920;2024-03-17T08:40:57;98865.22;;;14.15;40.78
42519;BME280;28147;47.520;18.920;2024-03-17T08:43:23;98860.28;;;13.90;41.87
42519;BME280;28147;47.520;18.920;2024-03-17T08:46:00;98875.34;;;14.12;40.73
42519;BME280;28147;47.520;18.920;2024-03-17T08:48:32;98872.63;;;15.07;40.07
42519;BME280;28147;47.520;18.920;2024-03-17T08:50:58;98865.91;;;15.04;39.09
42519;BME280;28147;47.520;18.920;2024-03-17T08:53:24;98864.38;;;15.14;38.99
42519;BME280;28147;47.520;18.920;2024-03-17T08:55:50;98847.94;;;15.59;37.54
42519;BME280;28147;47.520;18.920;2024-03-17T08:58:15;98842.81;;;15.85;38.01
42519;BME280;28147;47.520;18.920;2024-03-17T09:00:41;98859.19;;;15.56;37.90
42519;BME280;28147;47.520;18.920;2024-03-17T09:03:08;98839.44;;;15.13;39.17
42519;BME280;28147;47.520;18.920;2024-03-17T09:05:37;98860.16;;;15.45;38.51
42519;BME280;28147;47.520;18.920;2024-03-17T09:08:03;98848.56;;;14.68;39.62
42519;BME280;28147;47.520;18.920;2024-03-17T09:10:29;98850.72;;;15.15;39.36
42519;BME280;28147;47.520;18.920;2024-03-17T09:12:54;98857.75;;;15.75;38.86
42519;BME280;28147;47.520;18.920;2024-03-17T09:15:19;98855.84;;;16.03;37.86
42519;BME280;28147;47.520;18.920;2024-03-17T09:17:45;98840.69;;;15.60;38.66
42519;BME280;28147;47.520;18.920;2024-03-17T09:20:12;98829.22;;;15.96;38.21
42519;BME280;28147;47.520;18.920;2024-03-17T09:22:41;98823.84;;;16.39;37.65
42519;BME280;28147;47.520;18.920;2024-03-17T09:25:09;98815.25;;;16.42;37.62
42519;BME280;28147;47.520;18.920;2024-03-17T09:27:36;98826.03;;;15.40;37.92
42519;BME280;28147;47.520;18.920;2024-03-17T09:30:03;98823.56;;;15.93;37.37
42519;BME280;28147;47.520;18.920;2024-03-17T09:32:31;98833.56;;;16.55;37.27
42519;BME280;28147;47.520;18.920;2024-03-17T09:34:56;98829.47;;;17.00;37.20
42519;BME280;28147;47.520;18.920;2024-03-17T09:37:22;98822.72;;;16.82;36.04
42519;BME280;28147;47.520;18.920;2024-03-17T09:39:48;98819.09;;;16.61;35.61
42519;BME280;28147;47.520;18.920;2024-03-17T09:42:18;98836.13;;;15.87;36.63
42519;BME280;28147;47.520;18.920;2024-03-17T09:44:47;98831.16;;;16.48;35.61
42519;BME280;28147;47.520;18.920;2024-03-17T09:47:21;98844.69;;;16.69;34.45
42519;BME280;28147;47.520;18.920;2024-03-17T09:49:50;98852.09;;;15.45;35.74
42519;BME280;28147;47.520;18.920;2024-03-17T09:52:25;98841.44;;;16.19;34.94
42519;BME280;28147;47.520;18.920;2024-03-17T09:55:01;98846.91;;;16.35;34.26
42519;BME280;28147;47.520;18.920;2024-03-17T09:57:35;98836.19;;;16.92;33.90
42519;BME280;28147;47.520;18.920;2024-03-17T10:00:04;98869.81;;;16.05;33.07
42519;BME280;28147;47.520;18.920;2024-03-17T10:02:45;98866.63;;;17.08;32.38
42519;BME280;28147;47.520;18.920;2024-03-17T10:05:31;98852.94;;;15.72;34.07
42519;BME280;28147;47.520;18.920;2024-03-17T10:07:57;98843.97;;;16.36;33.40
42519;BME280;28147;47.520;18.920;2024-03-17T10:10:23;98847.59;;;16.62;33.50
42519;BME280;28147;47.520;18.920;2024-03-17T10:12:50;98859.78;;;16.27;33.18
42519;BME280;28147;47.520;18.920;2024-03-17T10:15:19;98846.25;;;16.12;32.36
42519;BME280;28147;47.520;18.920;2024-03-17T10:17:45;98849.50;;;16.14;33.69
42519;BME280;28147;47.520;18.920;2024-03-17T10:20:15;98829.56;;;16.58;34.76
42519;BME280;28147;47.520;18.920;2024-03-17T10:25:25;98840.13;;;16.22;34.60
42519;BME280;28147;47.520;18.920;2024-03-17T10:27:52;98838.63;;;16.94;32.38
42519;BME280;28147;47.520;18.920;2024-03-17T10:30:18;98847.84;;;16.13;33.40
42519;BME280;28147;47.520;18.920;2024-03-17T10:32:52;98835.88;;;16.78;34.10
42519;BME280;28147;47.520;18.920;2024-03-17T10:35:26;98847.22;;;16.96;33.59
42519;BME280;28147;47.520;18.920;2024-03-17T10:38:00;98847.34;;;16.16;32.92
42519;BME280;28147;47.520;18.920;2024-03-17T10:40:27;98846.53;;;15.78;34.05
42519;BME280;28147;47.520;18.920;2024-03-17T10:42:53;98863.09;;;16.02;33.58
42519;BME280;28147;47.520;18.920;2024-03-17T10:45:18;98854.00;;;16.09;33.23
42519;BME280;28147;47.520;18.920;2024-03-17T10:47:49;98854.28;;;16.07;34.45
42519;BME280;28147;47.520;18.920;2024-03-17T10:50:21;98884.34;;;16.46;33.75
42519;BME280;28147;47.520;18.920;2024-03-17T10:52:48;98876.06;;;16.16;32.97
42519;BME280;28147;47.520;18.920;2024-03-17T10:55:24;98889.00;;;16.61;32.73
42519;BME280;28147;47.520;18.920;2024-03-17T10:57:52;98886.41;;;15.97;33.34
42519;BME280;28147;47.520;18.920;2024-03-17T11:00:20;98883.72;;;16.76;32.75
42519;BME280;28147;47.520;18.920;2024-03-17T11:02:51;98902.44;;;17.09;32.74
42519;BME280;28147;47.520;18.920;2024-03-17T11:07:46;98894.06;;;16.58;32.30
42519;BME280;28147;47.520;18.920;2024-03-17T11:10:16;98894.72;;;16.33;33.27
42519;BME280;28147;47.520;18.920;2024-03-17T11:12:50;98898.88;;;16.50;33.45
42519;BME280;28147;47.520;18.920;2024-03-17T11:17:47;98887.03;;;16.99;31.48
42519;BME280;28147;47.520;18.920;2024-03-17T11:20:21;98883.34;;;17.15;32.23
42519;BME280;28147;47.520;18.920;2024-03-17T11:22:49;98891.63;;;16.93;31.73
42519;BME280;28147;47.520;18.920;2024-03-17T11:28:02;98868.69;;;16.33;31.92
42519;BME280;28147;47.520;18.920;2024-03-17T11:39:13;98868.16;;;16.78;33.38
42519;BME280;28147;47.520;18.920;2024-03-17T11:41:49;98866.09;;;17.01;33.55
42519;BME280;28147;47.520;18.920;2024-03-17T11:46:53;98873.66;;;17.19;32.18
42519;BME280;28147;47.520;18.920;2024-03-17T11:51:52;98866.13;;;17.21;32.42
42519;BME280;28147;47.520;18.920;2024-03-17T11:54:25;98881.69;;;17.04;31.06
42519;BME280;28147;47.520;18.920;2024-03-17T11:56:53;98870.56;;;16.75;30.70
42519;BME280;28147;47.520;18.920;2024-03-17T11:59:19;98877.44;;;16.18;32.63
42519;BME280;28147;47.520;18.920;2024-03-17T12:01:49;98869.94;;;16.20;31.25
42519;BME280;28147;47.520;18.920;2024-03-17T12:04:16;98865.84;;;16.55;30.49
42519;BME280;28147;47.520;18.920;2024-03-17T12:06:46;98859.31;;;16.41;30.35
42519;BME280;28147;47.520;18.920;2024-03-17T12:09:28;98845.25;;;16.23;31.50
42519;BME280;28147;47.520;18.920;2024-03-17T12:12:05;98847.59;;;15.77;31.80
42519;BME280;28147;47.520;18.920;2024-03-17T12:14:32;98844.41;;;15.53;30.91
42519;BME280;28147;47.520;18.920;2024-03-17T12:17:03;98837.38;;;15.47;31.96
42519;BME280;28147;47.520;18.920;2024-03-17T12:19:29;98834.69;;;15.47;31.37
42519;BME280;28147;47.520;18.920;2024-03-17T12:21:56;98846.00;;;15.49;30.80
42519;BME280;28147;47.520;18.920;2024-03-17T12:24:23;98839.72;;;15.12;30.27
42519;BME280;28147;47.520;18.920;2024-03-17T12:26:50;98831.56;;;14.79;31.92
42519;BME280;28147;47.520;18.920;2024-03-17T12:29:29;98822.91;;;15.21;32.21
42519;BME280;28147;47.520;18.920;2024-03-17T12:32:04;98813.78;;;14.95;31.29
42519;BME280;28147;47.520;18.920;2024-03-17T12:34:33;98818.94;;;15.02;31.34
42519;BME280;28147;47.520;18.920;2024-03-17T12:37:02;98818.66;;;14.98;31.32
42519;BME280;28147;47.520;18.920;2024-03-17T12:39:30;98810.34;;;15.00;32.14
42519;BME280;28147;47.520;18.920;2024-03-17T12:42:13;98824.41;;;14.85;33.52
42519;BME280;28147;47.520;18.920;2024-03-17T12:44:43;98807.22;;;15.08;32.91
42519;BME280;28147;47.520;18.920;2024-03-17T12:47:16;98819.81;;;15.07;32.43
42519;BME280;28147;47.520;18.920;2024-03-17T12:49:46;98830.22;;;14.38;31.64
42519;BME280;28147;47.520;18.920;2024-03-17T12:52:29;98830.72;;;14.74;31.90
42519;BME280;28147;47.520;18.920;2024-03-17T12:55:01;98831.47;;;14.96;30.96
42519;BME280;28147;47.520;18.920;2024-03-17T12:57:50;98821.91;;;15.27;30.59
42519;BME280;28147;47.520;18.920;2024-03-17T13:00:34;98820.56;;;15.03;31.18
42519;BME280;28147;47.520;18.920;2024-03-17T13:03:07;98812.81;;;15.33;30.67
42519;BME280;28147;47.520;18.920;2024-03-17T13:05:33;98813.91;;;15.05;29.92
42519;BME280;28147;47.520;18.920;2024-03-17T13:07:59;98810.41;;;15.05;30.84
42519;BME280;28147;47.520;18.920;2024-03-17T13:10:25;98802.38;;;15.05;31.00
42519;BME280;28147;47.520;18.920;2024-03-17T13:13:01;98805.09;;;15.10;31.83
42519;BME280;28147;47.520;18.920;2024-03-17T13:15:30;98813.78;;;15.22;31.99